Time;durP1;ratioP1;P1;durP2;ratioP2;P2;SDS_P1;SDS_P2;PMS_P1;PMS_P2;Temp;Humidity;BMP_temperature;BMP_pressure;BME280_temperature;BME280_humidity;BME280_pressure;Samples;Min_cycle;Max_cycle;Signal;HPM_P1;HPM_P2
2024/01/21 00:00:56;;;;;;;0.85;0.85;;;-2.10;99.90;;;;;;4413798;32;20157;-73
2024/01/21 00:03:22;;;;;;;1.05;0.98;;;-2.10;99.90;;;;;;4410057;32;20164;-73
2024/01/21 00:05:47;;;;;;;0.60;0.60;;;-2.10;99.90;;;;;;4411582;32;20143;-73
2024/01/21 00:08:13;;;;;;;0.40;0.40;;;-2.10;99.90;;;;;;4411311;32;20118;-74
2024/01/21 00:10:38;;;;;;;6.85;2.80;;;-2.20;99.90;;;;;;4411277;32;20085;-73
2024/01/21 00:13:03;;;;;;;1.12;1.02;;;-2.20;99.90;;;;;;4409601;32;20142;-73
2024/01/21 00:15:29;;;;;;;1.55;1.05;;;-2.20;99.90;;;;;;4410870;32;20124;-74
2024/01/21 00:17:54;;;;;;;1.27;1.17;;;-2.30;99.90;;;;;;4414283;32;20070;-73
2024/01/21 00:20:20;;;;;;;0.70;0.70;;;-2.30;99.90;;;;;;4418945;32;20596;-76
2024/01/21 00:22:45;;;;;;;0.62;0.62;;;-2.20;99.90;;;;;;4414155;32;21018;-77
2024/01/21 00:25:11;;;;;;;0.80;0.80;;;-2.10;99.90;;;;;;4414659;32;20181;-73
2024/01/21 00:27:37;;;;;;;0.50;0.50;;;-2.10;99.90;;;;;;4412818;32;20081;-73
2024/01/21 00:30:04;;;;;;;0.50;0.50;;;-2.10;99.90;;;;;;4412797;32;20058;-74
2024/01/21 00:32:29;;;;;;;0.50;0.50;;;-2.20;99.90;;;;;;4409799;32;20168;-73
2024/01/21 00:34:55;;;;;;;0.40;0.40;;;-2.10;99.90;;;;;;4408571;32;20483;-74
2024/01/21 00:37:20;;;;;;;0.57;0.57;;;-2.10;99.90;;;;;;4408024;32;20532;-74
2024/01/21 00:39:45;;;;;;;0.47;0.47;;;-2.00;99.90;;;;;;4412508;32;20075;-73
2024/01/21 00:42:11;;;;;;;0.75;0.75;;;-2.20;99.90;;;;;;4410376;32;20125;-76
2024/01/21 00:44:37;;;;;;;0.60;0.60;;;-2.20;99.90;;;;;;4413753;32;20073;-77
2024/01/21 00:47:03;;;;;;;0.50;0.50;;;-2.30;99.90;;;;;;4413134;32;20080;-76
2024/01/21 00:49:29;;;;;;;1.02;1.02;;;-2.20;99.90;;;;;;4413321;32;20541;-76
2024/01/21 00:51:55;;;;;;;0.50;0.50;;;-2.30;99.90;;;;;;4417646;32;20489;-77
2024/01/21 00:54:23;;;;;;;0.40;0.40;;;-2.30;99.90;;;;;;4414699;32;20073;-76
2024/01/21 00:56:48;;;;;;;0.50;0.50;;;-2.30;99.90;;;;;;4410439;32;20441;-76
2024/01/21 00:59:14;;;;;;;2.17;1.40;;;-2.40;99.90;;;;;;4412573;32;20062;-76
2024/01/21 01:01:39;;;;;;;0.60;0.60;;;-2.50;99.90;;;;;;4411283;32;20089;-76
2024/01/21 01:04:05;;;;;;;0.65;0.65;;;-2.60;99.90;;;;;;4413924;32;20212;-76
2024/01/21 01:06:32;;;;;;;0.43;0.43;;;-2.80;99.90;;;;;;4409652;32;20080;-76
2024/01/21 01:08:59;;;;;;;0.60;0.60;;;-2.80;99.90;;;;;;4410679;32;20200;-77
2024/01/21 01:11:24;;;;;;;0.70;0.70;;;-2.90;99.90;;;;;;4411341;32;20157;-77
2024/01/21 01:13:50;;;;;;;0.45;0.45;;;-2.80;99.90;;;;;;4412791;32;20082;-77
2024/01/21 01:16:16;;;;;;;14.82;1.58;;;-2.80;99.90;;;;;;4414981;32;20078;-76
2024/01/21 01:18:42;;;;;;;0.98;0.70;;;-2.90;99.90;;;;;;4411937;32;20542;-76
2024/01/21 01:21:10;;;;;;;0.60;0.60;;;-2.80;99.90;;;;;;4410686;32;20361;-77
2024/01/21 01:23:35;;;;;;;0.40;0.40;;;-2.80;99.90;;;;;;4411837;32;20065;-76
2024/01/21 01:26:01;;;;;;;0.50;0.50;;;-2.70;99.90;;;;;;4408608;32;20541;-76
2024/01/21 01:28:27;;;;;;;0.62;0.62;;;-2.80;99.90;;;;;;4410501;32;20074;-76
2024/01/21 01:30:52;;;;;;;0.40;0.40;;;-2.90;99.90;;;;;;4410412;32;20151;-76
2024/01/21 01:33:18;;;;;;;0.60;0.60;;;-3.00;99.90;;;;;;4408258;32;20065;-73
2024/01/21 01:35:43;;;;;;;0.45;0.45;;;-3.00;99.90;;;;;;4409721;32;20080;-73
2024/01/21 01:38:12;;;;;;;0.50;0.50;;;-3.10;99.90;;;;;;4412862;32;20081;-74
2024/01/21 01:40:37;;;;;;;0.50;0.50;;;-3.10;99.90;;;;;;4410616;32;20082;-73
2024/01/21 01:43:03;;;;;;;0.50;0.50;;;-3.10;99.90;;;;;;4412618;32;20074;-74
2024/01/21 01:45:29;;;;;;;5.28;4.03;;;-3.20;99.90;;;;;;4411340;32;20085;-73
2024/01/21 01:47:56;;;;;;;0.50;0.50;;;-3.30;99.90;;;;;;4411716;32;20518;-73
2024/01/21 01:50:22;;;;;;;0.50;0.50;;;-3.20;99.90;;;;;;4411593;32;20071;-73
2024/01/21 01:52:48;;;;;;;1.08;1.08;;;-3.30;99.90;;;;;;4414718;32;20766;-73
2024/01/21 01:55:14;;;;;;;0.50;0.50;;;-3.20;99.90;;;;;;4411091;32;20140;-73
2024/01/21 01:57:40;;;;;;;0.40;0.40;;;-3.20;99.90;;;;;;4410132;32;20062;-73
2024/01/21 02:00:06;;;;;;;0.90;0.90;;;-3.20;99.90;;;;;;4411943;32;20078;-72
2024/01/21 02:02:34;;;;;;;1.15;1.15;;;-3.20;99.90;;;;;;4411676;32;20069;-72
2024/01/21 02:05:03;;;;;;;7.20;2.35;;;-3.30;99.90;;;;;;4409150;32;20406;-72
2024/01/21 02:07:29;;;;;;;0.50;0.50;;;-3.40;99.90;;;;;;4409010;32;20136;-72
2024/01/21 02:09:56;;;;;;;0.50;0.50;;;-3.30;99.90;;;;;;4411102;32;20510;-72
2024/01/21 02:12:22;;;;;;;8.98;1.40;;;-3.40;99.90;;;;;;4408917;32;20136;-73
2024/01/21 02:14:47;;;;;;;0.90;0.90;;;-3.40;99.90;;;;;;4408994;32;20125;-73
2024/01/21 02:17:12;;;;;;;1.67;1.48;;;-3.30;99.90;;;;;;4413197;32;20190;-73
2024/01/21 02:19:38;;;;;;;1.12;0.85;;;-3.30;99.90;;;;;;4412841;32;20081;-72
2024/01/21 02:22:04;;;;;;;0.50;0.50;;;-3.20;99.90;;;;;;4416204;32;20074;-72
2024/01/21 02:24:31;;;;;;;4.32;1.42;;;-3.20;99.90;;;;;;4415644;32;20073;-75
2024/01/21 02:26:57;;;;;;;0.40;0.40;;;-3.30;99.90;;;;;;4413501;32;20058;-72
2024/01/21 02:29:22;;;;;;;0.50;0.50;;;-3.30;99.90;;;;;;4414558;32;20533;-72
2024/01/21 02:31:48;;;;;;;0.50;0.50;;;-3.20;99.90;;;;;;4415727;32;20097;-74
2024/01/21 02:34:13;;;;;;;0.80;0.80;;;-3.30;99.90;;;;;;4410021;32;20073;-75
2024/01/21 02:36:39;;;;;;;1.40;1.30;;;-3.30;99.90;;;;;;4412326;32;20073;-72
2024/01/21 02:39:04;;;;;;;0.57;0.57;;;-3.20;99.90;;;;;;4416261;32;20504;-72
2024/01/21 02:41:30;;;;;;;0.40;0.40;;;-3.20;99.90;;;;;;4413084;32;20120;-72
2024/01/21 02:43:55;;;;;;;0.40;0.40;;;-3.30;99.90;;;;;;4409536;32;20081;-72
2024/01/21 02:46:21;;;;;;;0.40;0.40;;;-3.30;99.90;;;;;;4415561;32;20547;-72
2024/01/21 02:48:46;;;;;;;0.57;0.57;;;-3.30;99.90;;;;;;4417369;32;20081;-72
2024/01/21 02:51:13;;;;;;;0.50;0.50;;;-3.30;99.90;;;;;;4416083;32;20085;-72
2024/01/21 02:53:39;;;;;;;1.45;1.35;;;-3.30;99.90;;;;;;4406999;32;20156;-72
2024/01/21 02:56:04;;;;;;;0.60;0.60;;;-3.40;99.90;;;;;;4410349;32;20062;-72
2024/01/21 02:58:30;;;;;;;0.73;0.73;;;-3.30;99.90;;;;;;4412137;32;20073;-76
2024/01/21 03:00:55;;;;;;;0.50;0.50;;;-3.30;99.90;;;;;;4412845;32;20086;-72
2024/01/21 03:03:21;;;;;;;0.65;0.65;;;-3.40;99.90;;;;;;4411242;32;20069;-72
2024/01/21 03:05:46;;;;;;;0.50;0.50;;;-3.40;99.90;;;;;;4412502;32;20086;-71
2024/01/21 03:08:12;;;;;;;0.50;0.50;;;-3.30;99.90;;;;;;4411838;32;20464;-74
2024/01/21 03:10:37;;;;;;;0.50;0.50;;;-3.30;99.90;;;;;;4411575;32;20074;-71
2024/01/21 03:13:03;;;;;;;0.50;0.50;;;-3.40;99.90;;;;;;4413194;32;20097;-72
2024/01/21 03:15:28;;;;;;;0.47;0.47;;;-3.40;99.90;;;;;;4412406;32;20468;-73
2024/01/21 03:17:54;;;;;;;1.10;1.10;;;-3.30;99.90;;;;;;4416094;32;20171;-71
2024/01/21 03:20:20;;;;;;;0.50;0.50;;;-3.30;99.90;;;;;;4414994;32;20141;-72
2024/01/21 03:22:46;;;;;;;0.50;0.50;;;-3.30;99.90;;;;;;4414302;32;20114;-72
2024/01/21 03:25:11;;;;;;;0.50;0.50;;;-3.30;99.90;;;;;;4412154;32;20065;-72
2024/01/21 03:27:37;;;;;;;0.40;0.40;;;-3.40;99.90;;;;;;4411712;32;20137;-72
2024/01/21 03:30:04;;;;;;;0.50;0.50;;;-3.30;99.90;;;;;;4413934;32;20564;-74
2024/01/21 03:32:29;;;;;;;0.40;0.40;;;-3.30;99.90;;;;;;4412827;32;20069;-77
2024/01/21 03:34:55;;;;;;;0.93;0.88;;;-3.30;99.90;;;;;;4415291;32;20430;-75
2024/01/21 03:37:20;;;;;;;0.50;0.50;;;-3.40;99.90;;;;;;4413715;32;20094;-76
2024/01/21 03:39:46;;;;;;;0.50;0.50;;;-3.40;99.90;;;;;;4412860;32;20147;-76
2024/01/21 03:42:11;;;;;;;1.02;0.95;;;-3.40;99.90;;;;;;4411898;32;20085;-76
2024/01/21 03:44:37;;;;;;;1.62;1.52;;;-3.40;99.90;;;;;;4412584;32;20461;-72
2024/01/21 03:47:03;;;;;;;0.50;0.50;;;-3.30;99.90;;;;;;4412773;32;20070;-73
2024/01/21 03:49:29;;;;;;;0.50;0.50;;;-3.10;99.90;;;;;;4412624;32;20444;-72
2024/01/21 03:51:54;;;;;;;0.40;0.40;;;-3.30;99.90;;;;;;4413902;32;20081;-72
2024/01/21 03:54:20;;;;;;;1.17;1.08;;;-3.30;99.90;;;;;;4412577;32;20066;-76
2024/01/21 03:56:45;;;;;;;0.40;0.40;;;-3.30;99.90;;;;;;4414142;32;20137;-77
2024/01/21 03:59:10;;;;;;;0.40;0.40;;;-3.30;99.90;;;;;;4410293;32;20174;-77
2024/01/21 04:04:08;;;;;;;0.77;0.77;;;-3.30;99.90;;;;;;4408910;32;20521;-76
2024/01/21 04:06:41;;;;;;;0.50;0.50;;;-3.30;99.90;;;;;;4410863;32;20520;-73
2024/01/21 04:09:10;;;;;;;2.10;1.60;;;-3.30;99.90;;;;;;4410307;32;20505;-76
2024/01/21 04:11:36;;;;;;;1.65;1.52;;;-3.40;99.90;;;;;;4410032;32;20574;-72
2024/01/21 04:14:01;;;;;;;0.45;0.45;;;-3.40;99.90;;;;;;4408339;32;20065;-72
2024/01/21 04:16:27;;;;;;;1.15;1.12;;;-3.30;99.90;;;;;;4415281;32;20082;-72
2024/01/21 04:18:52;;;;;;;0.65;0.65;;;-3.20;99.90;;;;;;4410880;32;20375;-75
2024/01/21 04:21:18;;;;;;;0.50;0.50;;;-3.20;99.90;;;;;;4415222;32;20502;-73
2024/01/21 04:23:43;;;;;;;2.10;0.77;;;-3.20;99.90;;;;;;4414462;32;20150;-72
2024/01/21 04:26:09;;;;;;;0.40;0.40;;;-3.20;99.90;;;;;;4410099;32;20082;-72
2024/01/21 04:28:37;;;;;;;0.40;0.40;;;-3.20;99.90;;;;;;4411791;32;20089;-72
2024/01/21 04:31:02;;;;;;;0.80;0.80;;;-3.30;99.90;;;;;;4414534;32;20548;-72
2024/01/21 04:33:28;;;;;;;0.50;0.50;;;-3.30;99.90;;;;;;4411207;32;20058;-73
2024/01/21 04:35:53;;;;;;;0.50;0.50;;;-3.30;99.90;;;;;;4411998;32;20057;-71
2024/01/21 04:38:21;;;;;;;0.50;0.50;;;-3.30;99.90;;;;;;4414916;32;20085;-73
2024/01/21 04:40:47;;;;;;;0.52;0.52;;;-3.30;99.90;;;;;;4413074;32;20508;-79
2024/01/21 04:43:12;;;;;;;0.40;0.40;;;-3.40;99.90;;;;;;4411403;32;20070;-73
2024/01/21 04:45:37;;;;;;;2.25;1.25;;;-3.30;99.90;;;;;;4412744;32;20124;-76
2024/01/21 04:48:04;;;;;;;0.50;0.50;;;-3.40;99.90;;;;;;4409351;32;20077;-74
2024/01/21 04:50:29;;;;;;;0.88;0.88;;;-3.30;99.90;;;;;;4414184;32;20594;-77
2024/01/21 04:52:55;;;;;;;0.50;0.50;;;-3.20;99.90;;;;;;4413214;32;20153;-75
2024/01/21 04:55:20;;;;;;;0.40;0.40;;;-3.20;99.90;;;;;;4410361;32;20120;-75
2024/01/21 04:57:46;;;;;;;0.50;0.50;;;-3.10;99.90;;;;;;4411458;32;20082;-77
2024/01/21 05:00:13;;;;;;;0.50;0.50;;;-3.00;99.90;;;;;;4412900;32;20101;-77
2024/01/21 05:02:39;;;;;;;0.50;0.50;;;-3.00;99.90;;;;;;4412159;32;20070;-77
2024/01/21 05:05:05;;;;;;;0.50;0.50;;;-3.00;99.90;;;;;;4410448;32;20451;-77
2024/01/21 05:07:30;;;;;;;0.40;0.40;;;-3.00;99.90;;;;;;4410025;32;20057;-76
2024/01/21 05:09:56;;;;;;;0.47;0.47;;;-2.90;99.90;;;;;;4410034;32;20120;-77
2024/01/21 05:12:22;;;;;;;0.77;0.77;;;-2.90;99.90;;;;;;4413077;32;20206;-76
2024/01/21 05:14:47;;;;;;;0.47;0.47;;;-2.80;99.90;;;;;;4411385;32;20128;-78
2024/01/21 05:17:13;;;;;;;0.73;0.73;;;-3.00;99.90;;;;;;4412365;32;20090;-74
2024/01/21 05:19:38;;;;;;;0.50;0.50;;;-2.90;99.90;;;;;;4413204;32;20084;-75
2024/01/21 05:22:04;;;;;;;5.62;3.50;;;-3.00;99.90;;;;;;4411072;32;20058;-76
2024/01/21 05:24:29;;;;;;;0.50;0.50;;;-3.00;99.90;;;;;;4413124;32;20410;-77
2024/01/21 05:26:55;;;;;;;0.40;0.40;;;-3.00;99.90;;;;;;4413231;32;20090;-75
2024/01/21 05:29:21;;;;;;;0.60;0.60;;;-3.00;99.90;;;;;;4412123;32;20077;-76
2024/01/21 05:31:47;;;;;;;1.40;1.30;;;-2.80;99.90;;;;;;4411041;32;20074;-75
2024/01/21 05:34:13;;;;;;;0.62;0.62;;;-2.80;99.90;;;;;;4412110;32;20125;-72
2024/01/21 05:36:38;;;;;;;0.60;0.60;;;-2.80;99.90;;;;;;4408918;32;20780;-76
2024/01/21 05:39:04;;;;;;;0.55;0.55;;;-2.80;99.90;;;;;;4410067;32;20081;-77
2024/01/21 05:41:30;;;;;;;0.60;0.60;;;-2.70;99.90;;;;;;4411274;32;20066;-77
2024/01/21 05:43:55;;;;;;;1.70;1.60;;;-2.60;99.90;;;;;;4413376;32;20398;-77
2024/01/21 05:46:21;;;;;;;0.43;0.43;;;-2.60;99.90;;;;;;4411390;32;20073;-77
2024/01/21 05:51:12;;;;;;;1.20;0.95;;;-2.50;99.90;;;;;;4415045;32;20217;-78
2024/01/21 05:53:39;;;;;;;0.40;0.40;;;-2.60;99.90;;;;;;4414576;32;20066;-77
2024/01/21 05:56:05;;;;;;;0.77;0.77;;;-2.50;99.90;;;;;;4415060;32;20414;-76
2024/01/21 05:58:30;;;;;;;1.35;1.17;;;-2.60;99.90;;;;;;4416852;32;20069;-77
2024/01/21 06:00:56;;;;;;;0.73;0.73;;;-2.70;99.90;;;;;;4414563;32;20105;-74
2024/01/21 06:03:21;;;;;;;0.50;0.50;;;-2.70;99.90;;;;;;4416629;32;20066;-75
2024/01/21 06:05:47;;;;;;;0.50;0.50;;;-2.70;99.90;;;;;;4412671;32;20371;-76
2024/01/21 06:08:12;;;;;;;0.98;0.98;;;-2.60;99.90;;;;;;4412423;32;20110;-76
2024/01/21 06:10:38;;;;;;;0.57;0.57;;;-2.60;99.90;;;;;;4415504;32;20074;-76
2024/01/21 06:13:03;;;;;;;1.50;1.40;;;-2.60;99.90;;;;;;4416283;32;20117;-77
2024/01/21 06:15:29;;;;;;;0.60;0.60;;;-2.70;99.90;;;;;;4412173;32;20124;-73
2024/01/21 06:17:54;;;;;;;0.50;0.50;;;-2.60;99.90;;;;;;4415230;32;20144;-73
2024/01/21 06:20:20;;;;;;;0.40;0.40;;;-2.60;99.90;;;;;;4414300;32;20399;-74
2024/01/21 06:22:45;;;;;;;0.77;0.77;;;-2.70;99.90;;;;;;4407758;32;20112;-72
2024/01/21 06:25:11;;;;;;;0.55;0.55;;;-2.60;99.90;;;;;;4413984;32;20065;-73
2024/01/21 06:27:37;;;;;;;0.50;0.50;;;-2.70;99.90;;;;;;4411160;32;21190;-73
2024/01/21 06:30:12;;;;;;;0.50;0.50;;;-2.70;99.90;;;;;;4410819;32;20086;-73
2024/01/21 06:32:37;;;;;;;0.40;0.40;;;-2.60;99.90;;;;;;4409832;32;20078;-73
2024/01/21 06:35:03;;;;;;;0.60;0.60;;;-2.70;99.90;;;;;;4408070;32;20204;-73
2024/01/21 06:37:28;;;;;;;0.77;0.77;;;-2.60;99.90;;;;;;4399132;32;20444;-73
2024/01/21 06:39:54;;;;;;;0.47;0.47;;;-2.60;99.90;;;;;;4408138;32;20481;-73
2024/01/21 06:42:19;;;;;;;0.40;0.40;;;-2.60;99.90;;;;;;4409897;32;20081;-73
2024/01/21 06:44:45;;;;;;;0.50;0.50;;;-2.60;99.90;;;;;;4412592;32;20061;-76
2024/01/21 06:47:10;;;;;;;0.40;0.40;;;-2.60;99.90;;;;;;4416999;32;20069;-77
2024/01/21 06:49:37;;;;;;;0.55;0.55;;;-2.60;99.90;;;;;;4417038;32;20086;-76
2024/01/21 06:52:04;;;;;;;22.75;1.85;;;-2.50;99.90;;;;;;4412459;32;20073;-76
2024/01/21 06:54:29;;;;;;;0.95;0.95;;;-2.50;99.90;;;;;;4413479;32;20135;-76
2024/01/21 06:56:55;;;;;;;0.73;0.73;;;-2.50;99.90;;;;;;4413859;32;20081;-76
2024/01/21 06:59:20;;;;;;;0.88;0.88;;;-2.50;99.90;;;;;;4412244;32;20069;-76
2024/01/21 07:01:46;;;;;;;0.40;0.40;;;-2.50;99.90;;;;;;4412464;32;20069;-77
2024/01/21 07:04:12;;;;;;;1.02;1.02;;;-2.40;99.90;;;;;;4410382;32;20069;-76
2024/01/21 07:06:39;;;;;;;0.70;0.70;;;-2.50;99.90;;;;;;4409604;32;20163;-77
2024/01/21 07:09:04;;;;;;;0.50;0.50;;;-2.50;99.90;;;;;;4414431;32;20077;-76
2024/01/21 07:11:35;;;;;;;0.50;0.50;;;-2.50;99.90;;;;;;4416132;32;20094;-76
2024/01/21 07:14:01;;;;;;;1.35;1.00;;;-2.50;99.90;;;;;;4413579;32;20057;-76
2024/01/21 07:16:26;;;;;;;3.72;2.15;;;-2.40;99.90;;;;;;4414160;32;20082;-76
2024/01/21 07:18:52;;;;;;;0.40;0.40;;;-2.40;99.90;;;;;;4412635;32;20065;-76
2024/01/21 07:21:17;;;;;;;0.60;0.60;;;-2.30;99.90;;;;;;4413838;32;20124;-77
2024/01/21 07:23:43;;;;;;;1.75;0.77;;;-2.20;99.90;;;;;;4413389;32;20061;-76
2024/01/21 07:26:08;;;;;;;0.50;0.50;;;-2.20;99.90;;;;;;4412086;32;20098;-73
2024/01/21 07:28:33;;;;;;;0.43;0.43;;;-2.30;99.90;;;;;;4413933;32;20124;-77
2024/01/21 07:30:59;;;;;;;0.65;0.65;;;-2.30;99.90;;;;;;4411415;32;20073;-76
2024/01/21 07:33:24;;;;;;;0.52;0.52;;;-2.30;99.90;;;;;;4409537;32;20081;-76
2024/01/21 07:35:50;;;;;;;0.57;0.57;;;-2.20;99.90;;;;;;4414215;32;20081;-76
2024/01/21 07:38:17;;;;;;;0.50;0.50;;;-2.30;99.90;;;;;;4412841;32;20548;-76
2024/01/21 07:40:43;;;;;;;0.50;0.50;;;-2.30;99.90;;;;;;4412823;32;20094;-76
2024/01/21 07:43:10;;;;;;;3.22;1.20;;;-2.30;99.90;;;;;;4414405;32;20076;-76
2024/01/21 07:45:36;;;;;;;0.40;0.40;;;-2.20;99.90;;;;;;4413696;32;20077;-77
2024/01/21 07:48:01;;;;;;;0.43;0.43;;;-2.10;99.90;;;;;;4412965;32;20419;-77
2024/01/21 07:50:27;;;;;;;0.50;0.50;;;-2.10;99.90;;;;;;4414792;32;20066;-76
2024/01/21 07:52:52;;;;;;;0.40;0.40;;;-2.10;99.90;;;;;;4411832;32;20157;-74
2024/01/21 07:55:18;;;;;;;0.40;0.40;;;-2.00;99.90;;;;;;4414632;32;20138;-72
2024/01/21 07:57:43;;;;;;;0.50;0.50;;;-2.00;99.90;;;;;;4411846;32;20076;-72
2024/01/21 08:02:34;;;;;;;0.40;0.40;;;-1.90;99.90;;;;;;4409498;32;20074;-72
2024/01/21 08:05:00;;;;;;;0.47;0.47;;;-1.80;99.90;;;;;;4410998;32;20053;-72
2024/01/21 08:07:27;;;;;;;0.40;0.40;;;-1.80;99.90;;;;;;4413821;32;20085;-72
2024/01/21 08:09:52;;;;;;;0.50;0.50;;;-1.80;99.90;;;;;;4411928;32;20439;-72
2024/01/21 08:12:18;;;;;;;0.50;0.50;;;-1.70;99.90;;;;;;4416325;32;20094;-72
2024/01/21 08:14:43;;;;;;;0.50;0.50;;;-1.60;99.90;;;;;;4413086;32;20401;-72
2024/01/21 08:17:09;;;;;;;0.50;0.50;;;-1.60;99.90;;;;;;4416313;32;20081;-73
2024/01/21 08:19:37;;;;;;;0.40;0.40;;;-1.70;99.90;;;;;;4414734;32;20064;-72
2024/01/21 08:22:03;;;;;;;0.40;0.40;;;-1.70;99.90;;;;;;4417588;32;20065;-76
2024/01/21 08:24:28;;;;;;;0.65;0.65;;;-1.60;99.90;;;;;;4413428;32;20078;-76
2024/01/21 08:26:54;;;;;;;0.40;0.40;;;-1.50;99.90;;;;;;4414917;32;20076;-75
2024/01/21 08:29:19;;;;;;;0.40;0.40;;;-1.50;99.90;;;;;;4416069;32;20113;-75
2024/01/21 08:31:47;;;;;;;0.47;0.47;;;-1.50;99.90;;;;;;4412920;32;20949;-76
2024/01/21 08:34:12;;;;;;;0.98;0.98;;;-1.40;99.90;;;;;;4408531;32;20136;-72
2024/01/21 08:36:38;;;;;;;0.50;0.50;;;-1.40;99.90;;;;;;4410287;32;20073;-73
2024/01/21 08:39:09;;;;;;;1.25;0.62;;;-1.40;99.90;;;;;;4411457;32;20129;-73
2024/01/21 08:41:35;;;;;;;0.43;0.43;;;-1.30;99.90;;;;;;4413740;32;20062;-72
2024/01/21 08:44:01;;;;;;;0.40;0.40;;;-1.20;99.90;;;;;;4410470;32;20082;-73
2024/01/21 08:46:27;;;;;;;0.50;0.50;;;-1.10;99.90;;;;;;4413231;32;20084;-72
2024/01/21 08:48:52;;;;;;;2.53;1.00;;;-1.10;99.90;;;;;;4410573;32;20069;-72
2024/01/21 08:51:18;;;;;;;0.45;0.45;;;-1.00;99.90;;;;;;4416712;32;20065;-72
2024/01/21 08:53:43;;;;;;;0.57;0.57;;;-1.00;99.90;;;;;;4410589;32;20073;-72
2024/01/21 08:56:09;;;;;;;0.62;0.62;;;-0.90;99.90;;;;;;4414531;32;20078;-72
2024/01/21 08:58:34;;;;;;;0.50;0.50;;;-0.80;99.90;;;;;;4411979;32;20188;-73
2024/01/21 09:01:00;;;;;;;0.40;0.40;;;-0.70;99.90;;;;;;4411529;32;20137;-72
2024/01/21 09:03:25;;;;;;;0.93;0.93;;;-0.70;99.90;;;;;;4410745;32;20070;-72
2024/01/21 09:05:51;;;;;;;0.57;0.57;;;-0.70;99.90;;;;;;4411189;32;20126;-73
2024/01/21 09:08:17;;;;;;;0.40;0.40;;;-0.80;99.90;;;;;;4413327;32;20077;-73
2024/01/21 09:10:43;;;;;;;0.60;0.60;;;-0.70;99.90;;;;;;4416006;32;20081;-74
2024/01/21 09:13:09;;;;;;;0.40;0.40;;;-0.50;99.90;;;;;;4410705;32;20185;-75
2024/01/21 09:15:34;;;;;;;0.40;0.40;;;-0.50;99.90;;;;;;4414492;32;20069;-73
2024/01/21 09:18:00;;;;;;;0.40;0.40;;;-0.50;99.90;;;;;;4412540;32;20090;-74
2024/01/21 09:20:25;;;;;;;0.68;0.68;;;-0.50;99.90;;;;;;4411934;32;20074;-74
2024/01/21 09:22:51;;;;;;;0.95;0.95;;;-0.40;99.90;;;;;;4414206;32;20076;-74
2024/01/21 09:25:16;;;;;;;0.40;0.40;;;-0.40;99.90;;;;;;4409324;32;20131;-73
2024/01/21 09:27:42;;;;;;;0.45;0.45;;;-0.40;99.90;;;;;;4415368;32;20505;-75
2024/01/21 09:30:08;;;;;;;0.55;0.55;;;-0.20;99.90;;;;;;4413202;32;20079;-75
2024/01/21 09:32:33;;;;;;;0.60;0.60;;;-0.20;99.90;;;;;;4408208;32;20168;-75
2024/01/21 09:34:59;;;;;;;2.35;1.25;;;-0.30;99.90;;;;;;4409036;32;20105;-76
2024/01/21 09:37:25;;;;;;;0.50;0.50;;;-0.20;99.90;;;;;;4410732;32;20471;-77
2024/01/21 09:39:50;;;;;;;0.50;0.50;;;-0.20;99.90;;;;;;4413391;32;20093;-77
2024/01/21 09:42:17;;;;;;;0.50;0.50;;;-0.10;99.90;;;;;;4413315;32;20077;-77
2024/01/21 09:44:43;;;;;;;0.73;0.73;;;-0.10;99.90;;;;;;4410162;32;20112;-72
2024/01/21 09:47:10;;;;;;;0.50;0.50;;;-0.10;99.90;;;;;;4415295;32;20510;-72
2024/01/21 09:49:37;;;;;;;0.40;0.40;;;-0.10;99.90;;;;;;4412188;32;20073;-72
2024/01/21 09:52:03;;;;;;;0.68;0.68;;;0.00;99.90;;;;;;4412566;32;20344;-72
2024/01/21 09:54:29;;;;;;;0.40;0.40;;;0.20;99.90;;;;;;4409393;32;20065;-72
2024/01/21 09:56:54;;;;;;;0.55;0.55;;;0.20;99.90;;;;;;4412501;32;20859;-72
2024/01/21 09:59:20;;;;;;;0.60;0.60;;;0.20;99.90;;;;;;4407533;32;20558;-72
2024/01/21 10:01:47;;;;;;;0.50;0.50;;;0.30;99.90;;;;;;4413545;32;20057;-72
2024/01/21 10:04:14;;;;;;;0.40;0.40;;;0.20;99.90;;;;;;4413391;32;20204;-71
2024/01/21 10:06:41;;;;;;;0.70;0.70;;;0.20;99.90;;;;;;4412125;32;21307;-72
2024/01/21 10:09:22;;;;;;;2.37;1.48;;;0.20;99.90;;;;;;4409463;32;20119;-72
2024/01/21 10:11:57;;;;;;;0.30;0.30;;;0.30;99.90;;;;;;4394764;32;20085;-72
2024/01/21 10:14:27;;;;;;;0.57;0.57;;;0.30;99.90;;;;;;4410859;32;20070;-76
2024/01/21 10:16:53;;;;;;;0.50;0.50;;;0.30;99.90;;;;;;4416089;32;20069;-78
2024/01/21 10:19:27;;;;;;;0.40;0.40;;;0.30;99.90;;;;;;4411440;32;20073;-76
2024/01/21 10:22:10;;;;;;;0.37;0.37;;;0.40;99.90;;;;;;4417244;32;20522;-76
2024/01/21 10:24:38;;;;;;;0.50;0.50;;;0.50;99.90;;;;;;4392153;32;20097;-76
2024/01/21 10:27:07;;;;;;;0.50;0.50;;;0.50;99.90;;;;;;4408541;32;20081;-77
2024/01/21 10:29:38;;;;;;;0.40;0.40;;;0.60;99.90;;;;;;4412213;32;20073;-76
2024/01/21 10:32:04;;;;;;;0.50;0.50;;;0.60;99.90;;;;;;4410317;32;20082;-77
2024/01/21 10:34:30;;;;;;;0.40;0.40;;;0.60;99.90;;;;;;4408198;32;20541;-76
2024/01/21 10:37:02;;;;;;;0.40;0.40;;;0.70;99.90;;;;;;4410779;32;20077;-76
2024/01/21 10:39:32;;;;;;;0.50;0.50;;;0.70;99.90;;;;;;4410408;32;20077;-77
2024/01/21 10:41:59;;;;;;;0.50;0.50;;;0.60;99.90;;;;;;4413006;32;20112;-76
2024/01/21 10:44:26;;;;;;;0.40;0.40;;;0.60;99.90;;;;;;4411336;32;20095;-78
2024/01/21 10:46:53;;;;;;;1.23;1.12;;;0.70;99.90;;;;;;4412236;32;20101;-77
2024/01/21 10:49:19;;;;;;;0.40;0.40;;;0.70;99.90;;;;;;4413516;32;20089;-78
2024/01/21 10:51:46;;;;;;;0.50;0.50;;;0.80;99.90;;;;;;4417490;32;20076;-79
2024/01/21 10:54:13;;;;;;;0.43;0.43;;;0.80;99.90;;;;;;4415747;32;20173;-73
2024/01/21 10:56:39;;;;;;;0.43;0.43;;;0.90;99.90;;;;;;4412491;32;20288;-79
2024/01/21 10:59:05;;;;;;;0.40;0.40;;;0.90;99.90;;;;;;4413535;32;20081;-78
2024/01/21 11:01:33;;;;;;;0.40;0.40;;;1.00;99.90;;;;;;4412844;32;20073;-78
2024/01/21 11:04:08;;;;;;;1.92;0.88;;;1.00;99.90;;;;;;4412833;32;20113;-75
2024/01/21 11:06:34;;;;;;;0.50;0.50;;;1.00;99.90;;;;;;4413403;32;20078;-78
2024/01/21 11:09:02;;;;;;;0.43;0.43;;;1.00;99.90;;;;;;4411695;32;20081;-77
2024/01/21 11:11:28;;;;;;;0.40;0.40;;;1.10;99.90;;;;;;4415385;32;20089;-78
2024/01/21 11:13:54;;;;;;;0.30;0.30;;;1.20;99.90;;;;;;4411753;32;20537;-77
2024/01/21 11:16:30;;;;;;;1.48;1.23;;;1.30;99.90;;;;;;4417944;32;20061;-77
2024/01/21 11:18:57;;;;;;;0.30;0.30;;;1.20;99.90;;;;;;4412096;32;20073;-77
2024/01/21 11:21:24;;;;;;;0.40;0.40;;;1.30;99.90;;;;;;4410498;32;20090;-77
2024/01/21 11:24:08;;;;;;;0.30;0.30;;;1.30;99.90;;;;;;4409773;32;20106;-77
2024/01/21 11:26:37;;;;;;;0.40;0.40;;;1.40;99.90;;;;;;4394900;32;20159;-77
2024/01/21 11:29:20;;;;;;;0.70;0.70;;;1.50;99.90;;;;;;4410040;32;20078;-78
2024/01/21 11:31:48;;;;;;;2.00;1.37;;;1.60;99.90;;;;;;4411716;32;20069;-76
2024/01/21 11:34:16;;;;;;;0.40;0.40;;;1.80;99.80;;;;;;4413074;32;20509;-77
2024/01/21 11:36:43;;;;;;;0.40;0.40;;;1.80;99.40;;;;;;4408546;32;20098;-79
2024/01/21 11:39:08;;;;;;;0.47;0.47;;;2.00;98.80;;;;;;4412631;32;20074;-77
2024/01/21 11:41:41;;;;;;;0.40;0.40;;;2.10;99.30;;;;;;4411643;32;20065;-78
2024/01/21 11:44:12;;;;;;;0.35;0.35;;;2.10;99.10;;;;;;4415998;32;20120;-78
2024/01/21 11:46:39;;;;;;;0.50;0.50;;;2.00;99.30;;;;;;4413430;32;20065;-79
2024/01/21 11:49:07;;;;;;;0.73;0.73;;;2.10;98.70;;;;;;4417078;32;20609;-76
2024/01/21 11:51:33;;;;;;;0.45;0.45;;;2.10;98.50;;;;;;4410240;32;91110;-78
2024/01/21 11:53:58;;;;;;;0.65;0.65;;;2.10;98.70;;;;;;4413603;32;20066;-77
2024/01/21 11:56:24;;;;;;;0.40;0.40;;;2.10;98.30;;;;;;4413326;32;20066;-77
2024/01/21 11:58:50;;;;;;;0.77;0.77;;;2.30;99.20;;;;;;4409943;32;20525;-76
2024/01/21 12:01:16;;;;;;;0.37;0.37;;;2.40;97.90;;;;;;4412307;32;20106;-77
2024/01/21 12:03:41;;;;;;;0.85;0.73;;;2.50;97.90;;;;;;4412185;32;20494;-76
2024/01/21 12:06:07;;;;;;;0.60;0.60;;;2.70;97.30;;;;;;4412501;32;20403;-75
2024/01/21 12:08:33;;;;;;;0.80;0.77;;;2.70;97.20;;;;;;4413144;32;20175;-78
2024/01/21 12:10:59;;;;;;;0.40;0.40;;;2.80;96.20;;;;;;4410602;32;20057;-76
2024/01/21 12:13:27;;;;;;;0.43;0.43;;;2.80;96.20;;;;;;4411307;32;20128;-76
2024/01/21 12:15:52;;;;;;;1.25;1.00;;;2.70;95.80;;;;;;4411408;32;20062;-76
2024/01/21 12:18:18;;;;;;;0.43;0.43;;;2.90;95.80;;;;;;4415459;32;20061;-77
2024/01/21 12:20:44;;;;;;;0.40;0.40;;;3.00;95.00;;;;;;4413590;32;20062;-77
2024/01/21 12:23:25;;;;;;;0.43;0.43;;;3.00;95.00;;;;;;4414276;32;20191;-77
2024/01/21 12:25:50;;;;;;;0.40;0.40;;;2.90;94.60;;;;;;4409980;32;20069;-77
2024/01/21 12:28:16;;;;;;;0.30;0.30;;;2.90;95.10;;;;;;4408885;32;20086;-77
2024/01/21 12:30:42;;;;;;;0.40;0.40;;;2.90;95.00;;;;;;4412878;32;20299;-76
2024/01/21 12:33:07;;;;;;;0.52;0.52;;;2.90;94.50;;;;;;4410998;32;20061;-77
2024/01/21 12:35:33;;;;;;;0.40;0.40;;;3.00;94.40;;;;;;4410349;32;20754;-76
2024/01/21 12:37:59;;;;;;;0.55;0.55;;;3.00;94.20;;;;;;4411710;32;20525;-75
2024/01/21 12:40:25;;;;;;;0.40;0.40;;;3.00;94.50;;;;;;4412280;32;20076;-74
2024/01/21 12:42:52;;;;;;;0.40;0.40;;;3.10;94.10;;;;;;4411526;32;20091;-75
2024/01/21 12:45:17;;;;;;;0.30;0.30;;;3.20;93.20;;;;;;4412739;32;20058;-77
2024/01/21 12:47:43;;;;;;;0.30;0.30;;;3.20;93.80;;;;;;4412736;32;20085;-77
2024/01/21 12:50:10;;;;;;;1.60;0.68;;;3.20;92.80;;;;;;4414189;32;20061;-77